sensor_id;sensor_type;location;lat;lon;timestamp;temperature;humidity
26099;DHT22;13860;52.370;6.764;2023-03-05T00:02:08;5.80;74.90
26099;DHT22;13860;52.370;6.764;2023-03-05T00:05:16;5.70;74.90
26099;DHT22;13860;52.370;6.764;2023-03-05T00:08:20;5.70;75.00
26099;DHT22;13860;52.370;6.764;2023-03-05T00:11:29;5.70;75.00
26099;DHT22;13860;52.370;6.764;2023-03-05T00:14:34;5.70;75.10
26099;DHT22;13860;52.370;6.764;2023-03-05T00:17:40;5.70;75.10
26099;DHT22;13860;52.370;6.764;2023-03-05T00:20:45;5.70;75.10
26099;DHT22;13860;52.370;6.764;2023-03-05T00:23:52;5.70;75.10
26099;DHT22;13860;52.370;6.764;2023-03-05T00:26:58;5.70;75.10
26099;DHT22;13860;52.370;6.764;2023-03-05T00:30:06;5.60;75.10
26099;DHT22;13860;52.370;6.764;2023-03-05T00:33:11;5.70;75.20
26099;DHT22;13860;52.370;6.764;2023-03-05T00:36:17;5.60;75.20
26099;DHT22;13860;52.370;6.764;2023-03-05T00:39:21;5.60;75.20
26099;DHT22;13860;52.370;6.764;2023-03-05T00:42:29;5.60;75.20
26099;DHT22;13860;52.370;6.764;2023-03-05T00:45:39;5.60;75.30
26099;DHT22;13860;52.370;6.764;2023-03-05T00:48:45;5.60;75.30
26099;DHT22;13860;52.370;6.764;2023-03-05T00:51:49;5.60;75.30
26099;DHT22;13860;52.370;6.764;2023-03-05T00:54:55;5.60;75.30
26099;DHT22;13860;52.370;6.764;2023-03-05T00:58:02;5.60;75.30
26099;DHT22;13860;52.370;6.764;2023-03-05T01:01:08;5.60;75.40
26099;DHT22;13860;52.370;6.764;2023-03-05T01:04:12;5.60;75.30
26099;DHT22;13860;52.370;6.764;2023-03-05T01:07:18;5.60;75.30
26099;DHT22;13860;52.370;6.764;2023-03-05T01:10:23;5.60;75.40
26099;DHT22;13860;52.370;6.764;2023-03-05T01:13:32;5.60;75.40
26099;DHT22;13860;52.370;6.764;2023-03-05T01:16:36;5.60;75.40
26099;DHT22;13860;52.370;6.764;2023-03-05T01:19:45;5.60;75.50
26099;DHT22;13860;52.370;6.764;2023-03-05T01:22:49;5.60;75.50
26099;DHT22;13860;52.370;6.764;2023-03-05T01:25:56;5.60;75.50
26099;DHT22;13860;52.370;6.764;2023-03-05T01:29:03;5.60;75.50
26099;DHT22;13860;52.370;6.764;2023-03-05T01:32:10;5.60;75.50
26099;DHT22;13860;52.370;6.764;2023-03-05T01:35:17;5.60;75.50
26099;DHT22;13860;52.370;6.764;2023-03-05T01:38:23;5.50;75.50
26099;DHT22;13860;52.370;6.764;2023-03-05T01:41:27;5.50;75.50
26099;DHT22;13860;52.370;6.764;2023-03-05T01:44:35;5.50;75.60
26099;DHT22;13860;52.370;6.764;2023-03-05T01:47:40;5.60;75.70
26099;DHT22;13860;52.370;6.764;2023-03-05T01:50:46;5.50;75.60
26099;DHT22;13860;52.370;6.764;2023-03-05T01:53:49;5.50;75.70
26099;DHT22;13860;52.370;6.764;2023-03-05T01:56:56;5.50;75.60
26099;DHT22;13860;52.370;6.764;2023-03-05T02:00:08;5.50;75.50
26099;DHT22;13860;52.370;6.764;2023-03-05T02:03:18;5.50;75.60
26099;DHT22;13860;52.370;6.764;2023-03-05T02:06:23;5.50;75.70
26099;DHT22;13860;52.370;6.764;2023-03-05T02:09:29;5.50;75.70
26099;DHT22;13860;52.370;6.764;2023-03-05T02:12:33;5.50;75.70
26099;DHT22;13860;52.370;6.764;2023-03-05T02:15:41;5.50;75.80
26099;DHT22;13860;52.370;6.764;2023-03-05T02:18:45;5.50;75.70
26099;DHT22;13860;52.370;6.764;2023-03-05T02:21:53;5.50;75.70
26099;DHT22;13860;52.370;6.764;2023-03-05T02:24:57;5.40;75.70
26099;DHT22;13860;52.370;6.764;2023-03-05T02:28:07;5.40;75.70
26099;DHT22;13860;52.370;6.764;2023-03-05T02:31:15;5.40;75.80
26099;DHT22;13860;52.370;6.764;2023-03-05T02:34:21;5.40;75.80
26099;DHT22;13860;52.370;6.764;2023-03-05T02:37:27;5.40;75.90
26099;DHT22;13860;52.370;6.764;2023-03-05T02:40:33;5.40;75.90
26099;DHT22;13860;52.370;6.764;2023-03-05T02:43:37;5.40;75.90
26099;DHT22;13860;52.370;6.764;2023-03-05T02:46:44;5.40;75.90
26099;DHT22;13860;52.370;6.764;2023-03-05T02:49:47;5.40;75.90
26099;DHT22;13860;52.370;6.764;2023-03-05T02:52:56;5.40;75.90
26099;DHT22;13860;52.370;6.764;2023-03-05T02:56:00;5.40;75.80
26099;DHT22;13860;52.370;6.764;2023-03-05T02:59:10;5.40;75.90
26099;DHT22;13860;52.370;6.764;2023-03-05T03:02:14;5.40;75.90
26099;DHT22;13860;52.370;6.764;2023-03-05T03:05:20;5.40;76.00
26099;DHT22;13860;52.370;6.764;2023-03-05T03:08:26;5.40;76.10
26099;DHT22;13860;52.370;6.764;2023-03-05T03:11:32;5.40;76.00
26099;DHT22;13860;52.370;6.764;2023-03-05T03:14:38;5.40;76.00
26099;DHT22;13860;52.370;6.764;2023-03-05T03:17:45;5.40;76.10
26099;DHT22;13860;52.370;6.764;2023-03-05T03:20:48;5.40;76.00
26099;DHT22;13860;52.370;6.764;2023-03-05T03:23:56;5.30;76.00
26099;DHT22;13860;52.370;6.764;2023-03-05T03:27:00;5.30;75.90
26099;DHT22;13860;52.370;6.764;2023-03-05T03:30:08;5.30;76.00
26099;DHT22;13860;52.370;6.764;2023-03-05T03:33:12;5.30;76.00
26099;DHT22;13860;52.370;6.764;2023-03-05T03:36:20;5.30;76.10
26099;DHT22;13860;52.370;6.764;2023-03-05T03:39:26;5.30;76.10
26099;DHT22;13860;52.370;6.764;2023-03-05T03:42:32;5.30;76.10
26099;DHT22;13860;52.370;6.764;2023-03-05T03:45:39;5.30;76.00
26099;DHT22;13860;52.370;6.764;2023-03-05T03:48:49;5.30;76.10
26099;DHT22;13860;52.370;6.764;2023-03-05T03:51:53;5.30;76.70
26099;DHT22;13860;52.370;6.764;2023-03-05T03:55:03;5.20;76.10
26099;DHT22;13860;52.370;6.764;2023-03-05T03:58:07;5.20;76.20
26099;DHT22;13860;52.370;6.764;2023-03-05T04:01:13;5.20;76.20
26099;DHT22;13860;52.370;6.764;2023-03-05T04:04:16;5.20;76.30
26099;DHT22;13860;52.370;6.764;2023-03-05T04:07:23;5.20;76.30
26099;DHT22;13860;52.370;6.764;2023-03-05T04:10:28;5.20;76.10
26099;DHT22;13860;52.370;6.764;2023-03-05T04:13:34;5.20;76.20
26099;DHT22;13860;52.370;6.764;2023-03-05T04:16:38;5.20;76.20
26099;DHT22;13860;52.370;6.764;2023-03-05T04:19:44;5.20;76.30
26099;DHT22;13860;52.370;6.764;2023-03-05T04:22:48;5.20;76.10
26099;DHT22;13860;52.370;6.764;2023-03-05T04:25:56;5.20;76.20
26099;DHT22;13860;52.370;6.764;2023-03-05T04:29:01;5.20;76.30
26099;DHT22;13860;52.370;6.764;2023-03-05T04:32:07;5.20;76.30
26099;DHT22;13860;52.370;6.764;2023-03-05T04:35:11;5.10;76.30
26099;DHT22;13860;52.370;6.764;2023-03-05T04:38:18;5.10;76.30
26099;DHT22;13860;52.370;6.764;2023-03-05T04:41:24;5.10;76.40
26099;DHT22;13860;52.370;6.764;2023-03-05T04:44:30;5.10;76.40
26099;DHT22;13860;52.370;6.764;2023-03-05T04:47:34;5.10;76.40
26099;DHT22;13860;52.370;6.764;2023-03-05T04:50:40;5.10;76.50
26099;DHT22;13860;52.370;6.764;2023-03-05T04:53:44;5.10;76.50
26099;DHT22;13860;52.370;6.764;2023-03-05T04:56:52;5.10;76.50
26099;DHT22;13860;52.370;6.764;2023-03-05T04:59:56;5.10;76.60
26099;DHT22;13860;52.370;6.764;2023-03-05T05:03:03;5.10;76.60
26099;DHT22;13860;52.370;6.764;2023-03-05T05:06:07;5.10;76.60
26099;DHT22;13860;52.370;6.764;2023-03-05T05:09:13;5.10;76.60
26099;DHT22;13860;52.370;6.764;2023-03-05T05:12:19;5.10;76.60
26099;DHT22;13860;52.370;6.764;2023-03-05T05:15:25;5.10;76.60
26099;DHT22;13860;52.370;6.764;2023-03-05T05:18:29;5.10;76.60
26099;DHT22;13860;52.370;6.764;2023-03-05T05:21:35;5.10;76.60
26099;DHT22;13860;52.370;6.764;2023-03-05T05:24:39;5.00;76.50
26099;DHT22;13860;52.370;6.764;2023-03-05T05:27:47;5.00;76.60
26099;DHT22;13860;52.370;6.764;2023-03-05T05:30:51;5.00;76.60
26099;DHT22;13860;52.370;6.764;2023-03-05T05:33:58;5.00;76.70
26099;DHT22;13860;52.370;6.764;2023-03-05T05:37:02;5.00;76.80
26099;DHT22;13860;52.370;6.764;2023-03-05T05:40:09;5.00;76.80
26099;DHT22;13860;52.370;6.764;2023-03-05T05:43:16;5.00;76.90
26099;DHT22;13860;52.370;6.764;2023-03-05T05:46:22;5.00;76.90
26099;DHT22;13860;52.370;6.764;2023-03-05T05:49:27;5.00;76.90
26099;DHT22;13860;52.370;6.764;2023-03-05T05:52:33;5.00;76.90
26099;DHT22;13860;52.370;6.764;2023-03-05T05:55:38;5.00;76.90
26099;DHT22;13860;52.370;6.764;2023-03-05T05:58:47;5.00;77.00
26099;DHT22;13860;52.370;6.764;2023-03-05T06:01:51;5.00;76.90
26099;DHT22;13860;52.370;6.764;2023-03-05T06:04:57;5.00;76.90
26099;DHT22;13860;52.370;6.764;2023-03-05T06:08:02;5.00;77.00
26099;DHT22;13860;52.370;6.764;2023-03-05T06:11:08;5.00;77.10
26099;DHT22;13860;52.370;6.764;2023-03-05T06:14:14;5.00;77.10
26099;DHT22;13860;52.370;6.764;2023-03-05T06:17:21;5.00;77.10
26099;DHT22;13860;52.370;6.764;2023-03-05T06:20:32;5.00;77.10
26099;DHT22;13860;52.370;6.764;2023-03-05T06:23:41;5.00;77.10
26099;DHT22;13860;52.370;6.764;2023-03-05T06:26:45;5.00;77.10
26099;DHT22;13860;52.370;6.764;2023-03-05T06:29:54;5.00;77.10
26099;DHT22;13860;52.370;6.764;2023-03-05T06:32:58;5.00;77.20
26099;DHT22;13860;52.370;6.764;2023-03-05T06:36:06;5.00;77.10
26099;DHT22;13860;52.370;6.764;2023-03-05T06:39:11;5.00;77.20
26099;DHT22;13860;52.370;6.764;2023-03-05T06:42:17;5.10;77.30
26099;DHT22;13860;52.370;6.764;2023-03-05T06:45:23;5.10;77.30
26099;DHT22;13860;52.370;6.764;2023-03-05T06:48:29;5.10;77.90
26099;DHT22;13860;52.370;6.764;2023-03-05T06:51:37;5.10;77.30
26099;DHT22;13860;52.370;6.764;2023-03-05T06:54:43;5.10;77.40
26099;DHT22;13860;52.370;6.764;2023-03-05T06:57:55;5.10;77.40
26099;DHT22;13860;52.370;6.764;2023-03-05T07:01:03;5.00;77.30
26099;DHT22;13860;52.370;6.764;2023-03-05T07:04:08;5.10;77.50
26099;DHT22;13860;52.370;6.764;2023-03-05T07:07:14;5.10;77.50
26099;DHT22;13860;52.370;6.764;2023-03-05T07:10:18;5.10;77.60
26099;DHT22;13860;52.370;6.764;2023-03-05T07:13:25;5.10;77.60
26099;DHT22;13860;52.370;6.764;2023-03-05T07:16:33;5.10;77.60
26099;DHT22;13860;52.370;6.764;2023-03-05T07:19:39;5.10;77.70
26099;DHT22;13860;52.370;6.764;2023-03-05T07:22:44;5.10;77.70
26099;DHT22;13860;52.370;6.764;2023-03-05T07:25:50;5.10;77.70
26099;DHT22;13860;52.370;6.764;2023-03-05T07:28:55;5.10;77.70
26099;DHT22;13860;52.370;6.764;2023-03-05T07:32:04;5.10;77.70
26099;DHT22;13860;52.370;6.764;2023-03-05T07:35:09;5.10;77.70
26099;DHT22;13860;52.370;6.764;2023-03-05T07:38:15;5.20;77.80
26099;DHT22;13860;52.370;6.764;2023-03-05T07:41:19;5.20;77.80
26099;DHT22;13860;52.370;6.764;2023-03-05T07:44:26;5.20;77.80
26099;DHT22;13860;52.370;6.764;2023-03-05T07:47:32;5.20;77.90
26099;DHT22;13860;52.370;6.764;2023-03-05T07:50:38;5.20;77.80
26099;DHT22;13860;52.370;6.764;2023-03-05T07:53:43;5.30;77.90
26099;DHT22;13860;52.370;6.764;2023-03-05T07:56:49;5.30;78.00
26099;DHT22;13860;52.370;6.764;2023-03-05T07:59:53;5.40;78.00
26099;DHT22;13860;52.370;6.764;2023-03-05T08:03:01;5.40;78.00
26099;DHT22;13860;52.370;6.764;2023-03-05T08:06:06;5.40;78.10
26099;DHT22;13860;52.370;6.764;2023-03-05T08:09:12;5.40;78.00
26099;DHT22;13860;52.370;6.764;2023-03-05T08:12:16;5.50;78.10
26099;DHT22;13860;52.370;6.764;2023-03-05T08:15:23;5.50;78.10
26099;DHT22;13860;52.370;6.764;2023-03-05T08:18:29;5.60;78.20
26099;DHT22;13860;52.370;6.764;2023-03-05T08:21:35;5.60;78.20
26099;DHT22;13860;52.370;6.764;2023-03-05T08:24:39;5.60;78.10
26099;DHT22;13860;52.370;6.764;2023-03-05T08:27:46;5.70;78.20
26099;DHT22;13860;52.370;6.764;2023-03-05T08:30:51;5.70;78.50
26099;DHT22;13860;52.370;6.764;2023-03-05T08:34:01;5.70;78.10
26099;DHT22;13860;52.370;6.764;2023-03-05T08:37:05;5.80;78.20
26099;DHT22;13860;52.370;6.764;2023-03-05T08:40:12;5.80;78.20
26099;DHT22;13860;52.370;6.764;2023-03-05T08:43:18;5.80;78.30
26099;DHT22;13860;52.370;6.764;2023-03-05T08:46:24;5.90;78.30
26099;DHT22;13860;52.370;6.764;2023-03-05T08:49:30;5.90;78.30
26099;DHT22;13860;52.370;6.764;2023-03-05T08:52:36;6.00;79.00
26099;DHT22;13860;52.370;6.764;2023-03-05T08:55:40;6.00;78.30
26099;DHT22;13860;52.370;6.764;2023-03-05T08:58:47;6.00;78.30
26099;DHT22;13860;52.370;6.764;2023-03-05T09:01:53;6.10;78.10
26099;DHT22;13860;52.370;6.764;2023-03-05T09:05:01;6.10;78.20
26099;DHT22;13860;52.370;6.764;2023-03-05T09:08:06;6.20;78.40
26099;DHT22;13860;52.370;6.764;2023-03-05T09:11:12;6.30;78.50
26099;DHT22;13860;52.370;6.764;2023-03-05T09:14:17;6.40;78.60
26099;DHT22;13860;52.370;6.764;2023-03-05T09:17:23;6.50;78.60
26099;DHT22;13860;52.370;6.764;2023-03-05T09:20:29;6.70;78.60
26099;DHT22;13860;52.370;6.764;2023-03-05T09:23:36;6.80;78.60
26099;DHT22;13860;52.370;6.764;2023-03-05T09:26:40;6.90;78.40
26099;DHT22;13860;52.370;6.764;2023-03-05T09:29:46;7.00;78.40
26099;DHT22;13860;52.370;6.764;2023-03-05T09:32:51;7.10;78.30
26099;DHT22;13860;52.370;6.764;2023-03-05T09:35:59;7.20;78.30
26099;DHT22;13860;52.370;6.764;2023-03-05T09:39:03;7.40;78.30
26099;DHT22;13860;52.370;6.764;2023-03-05T09:42:40;7.50;78.20
26099;DHT22;13860;52.370;6.764;2023-03-05T09:45:57;7.60;78.20
26099;DHT22;13860;52.370;6.764;2023-03-05T09:49:13;7.80;78.10
26099;DHT22;13860;52.370;6.764;2023-03-05T09:52:24;7.90;78.00
26099;DHT22;13860;52.370;6.764;2023-03-05T09:55:34;8.00;77.80
26099;DHT22;13860;52.370;6.764;2023-03-05T09:58:42;8.20;77.70
26099;DHT22;13860;52.370;6.764;2023-03-05T10:01:54;8.30;77.60
26099;DHT22;13860;52.370;6.764;2023-03-05T10:05:03;8.40;77.50
26099;DHT22;13860;52.370;6.764;2023-03-05T10:08:23;8.50;78.00
26099;DHT22;13860;52.370;6.764;2023-03-05T10:11:50;8.60;77.30
26099;DHT22;13860;52.370;6.764;2023-03-05T10:14:59;8.70;77.10
26099;DHT22;13860;52.370;6.764;2023-03-05T10:18:13;8.90;77.10
26099;DHT22;13860;52.370;6.764;2023-03-05T10:21:27;9.00;76.90
26099;DHT22;13860;52.370;6.764;2023-03-05T10:24:43;9.20;76.90
26099;DHT22;13860;52.370;6.764;2023-03-05T10:27:57;9.30;76.70
26099;DHT22;13860;52.370;6.764;2023-03-05T10:34:47;9.50;76.30
26099;DHT22;13860;52.370;6.764;2023-03-05T10:41:34;9.70;76.00
26099;DHT22;13860;52.370;6.764;2023-03-05T10:44:43;9.70;75.70
26099;DHT22;13860;52.370;6.764;2023-03-05T10:47:54;9.80;75.60
26099;DHT22;13860;52.370;6.764;2023-03-05T10:51:01;9.80;75.50
26099;DHT22;13860;52.370;6.764;2023-03-05T10:54:13;9.80;75.30
26099;DHT22;13860;52.370;6.764;2023-03-05T10:57:24;9.80;75.20
26099;DHT22;13860;52.370;6.764;2023-03-05T11:00:30;9.90;75.20
26099;DHT22;13860;52.370;6.764;2023-03-05T11:03:52;9.90;75.10
26099;DHT22;13860;52.370;6.764;2023-03-05T11:06:58;9.90;74.80
26099;DHT22;13860;52.370;6.764;2023-03-05T11:10:08;10.00;74.90
26099;DHT22;13860;52.370;6.764;2023-03-05T11:13:25;10.00;74.90
26099;DHT22;13860;52.370;6.764;2023-03-05T11:16:32;10.10;74.80
26099;DHT22;13860;52.370;6.764;2023-03-05T11:19:40;10.00;74.60
26099;DHT22;13860;52.370;6.764;2023-03-05T11:23:02;10.00;74.50
26099;DHT22;13860;52.370;6.764;2023-03-05T11:26:18;10.10;74.30
26099;DHT22;13860;52.370;6.764;2023-03-05T11:29:28;10.10;74.30
26099;DHT22;13860;52.370;6.764;2023-03-05T11:32:35;10.10;74.20
26099;DHT22;13860;52.370;6.764;2023-03-05T11:35:41;10.10;74.20
26099;DHT22;13860;52.370;6.764;2023-03-05T11:38:51;10.10;74.10
26099;DHT22;13860;52.370;6.764;2023-03-05T11:41:58;10.20;74.00
26099;DHT22;13860;52.370;6.764;2023-03-05T11:45:14;10.20;73.90
26099;DHT22;13860;52.370;6.764;2023-03-05T11:48:23;10.20;73.70
26099;DHT22;13860;52.370;6.764;2023-03-05T11:51:38;10.20;73.70
26099;DHT22;13860;52.370;6.764;2023-03-05T11:54:51;10.30;73.60
26099;DHT22;13860;52.370;6.764;2023-03-05T11:58:09;10.30;73.70
26099;DHT22;13860;52.370;6.764;2023-03-05T12:01:24;10.30;73.50
26099;DHT22;13860;52.370;6.764;2023-03-05T12:04:32;10.40;73.50
26099;DHT22;13860;52.370;6.764;2023-03-05T12:07:41;10.40;73.40
26099;DHT22;13860;52.370;6.764;2023-03-05T12:10:49;10.40;73.10
26099;DHT22;13860;52.370;6.764;2023-03-05T12:13:53;10.50;73.10
26099;DHT22;13860;52.370;6.764;2023-03-05T12:17:07;10.50;73.00
26099;DHT22;13860;52.370;6.764;2023-03-05T12:20:16;10.50;72.90
26099;DHT22;13860;52.370;6.764;2023-03-05T12:23:26;10.50;72.80
26099;DHT22;13860;52.370;6.764;2023-03-05T12:26:55;10.50;72.70
26099;DHT22;13860;52.370;6.764;2023-03-05T12:30:03;10.40;72.10
26099;DHT22;13860;52.370;6.764;2023-03-05T12:33:29;10.40;72.30
26099;DHT22;13860;52.370;6.764;2023-03-05T12:36:37;10.40;72.00
26099;DHT22;13860;52.370;6.764;2023-03-05T12:39:47;10.30;72.20
26099;DHT22;13860;52.370;6.764;2023-03-05T12:42:57;10.30;72.10
26099;DHT22;13860;52.370;6.764;2023-03-05T12:46:22;10.30;72.20
26099;DHT22;13860;52.370;6.764;2023-03-05T12:49:36;10.20;71.80
26099;DHT22;13860;52.370;6.764;2023-03-05T12:52:42;10.10;71.90
26099;DHT22;13860;52.370;6.764;2023-03-05T12:55:55;10.10;72.00
26099;DHT22;13860;52.370;6.764;2023-03-05T12:59:02;10.00;71.80
26099;DHT22;13860;52.370;6.764;2023-03-05T13:02:20;10.00;71.80
26099;DHT22;13860;52.370;6.764;2023-03-05T13:05:30;9.90;71.70
26099;DHT22;13860;52.370;6.764;2023-03-05T13:08:36;9.80;71.70
26099;DHT22;13860;52.370;6.764;2023-03-05T13:11:42;9.80;71.80
26099;DHT22;13860;52.370;6.764;2023-03-05T13:14:57;9.80;71.80
26099;DHT22;13860;52.370;6.764;2023-03-05T13:18:01;9.70;71.70
26099;DHT22;13860;52.370;6.764;2023-03-05T13:21:15;9.70;71.80
26099;DHT22;13860;52.370;6.764;2023-03-05T13:24:19;9.70;71.70
26099;DHT22;13860;52.370;6.764;2023-03-05T13:27:28;9.60;71.70
26099;DHT22;13860;52.370;6.764;2023-03-05T13:30:33;9.60;71.60
26099;DHT22;13860;52.370;6.764;2023-03-05T13:33:39;9.50;71.60
26099;DHT22;13860;52.370;6.764;2023-03-05T13:36:53;9.50;71.60
26099;DHT22;13860;52.370;6.764;2023-03-05T13:40:03;9.50;71.60
26099;DHT22;13860;52.370;6.764;2023-03-05T13:43:16;9.40;71.70
26099;DHT22;13860;52.370;6.764;2023-03-05T13:46:24;9.40;71.70
26099;DHT22;13860;52.370;6.764;2023-03-05T13:49:29;9.40;71.60
26099;DHT22;13860;52.370;6.764;2023-03-05T13:52:38;9.30;71.60
26099;DHT22;13860;52.370;6.764;2023-03-05T13:55:42;9.30;71.60
26099;DHT22;13860;52.370;6.764;2023-03-05T13:58:50;9.30;71.60
26099;DHT22;13860;52.370;6.764;2023-03-05T14:01:55;9.30;71.70
26099;DHT22;13860;52.370;6.764;2023-03-05T14:05:02;9.30;71.60
26099;DHT22;13860;52.370;6.764;2023-03-05T14:08:19;9.20;71.50
26099;DHT22;13860;52.370;6.764;2023-03-05T14:11:26;9.20;71.40
26099;DHT22;13860;52.370;6.764;2023-03-05T14:14:33;9.20;71.50
26099;DHT22;13860;52.370;6.764;2023-03-05T14:17:41;9.20;71.50
26099;DHT22;13860;52.370;6.764;2023-03-05T14:21:01;9.20;71.50
26099;DHT22;13860;52.370;6.764;2023-03-05T14:24:17;9.20;71.40
26099;DHT22;13860;52.370;6.764;2023-03-05T14:27:22;9.20;71.50
26099;DHT22;13860;52.370;6.764;2023-03-05T14:30:28;9.20;71.50
26099;DHT22;13860;52.370;6.764;2023-03-05T14:33:33;9.20;71.40
26099;DHT22;13860;52.370;6.764;2023-03-05T14:36:39;9.20;71.40
26099;DHT22;13860;52.370;6.764;2023-03-05T14:39:52;9.20;71.40
26099;DHT22;13860;52.370;6.764;2023-03-05T14:43:01;9.10;71.40
26099;DHT22;13860;52.370;6.764;2023-03-05T14:46:08;9.20;71.40
26099;DHT22;13860;52.370;6.764;2023-03-05T14:49:19;9.20;71.50
26099;DHT22;13860;52.370;6.764;2023-03-05T14:52:23;9.20;71.50
26099;DHT22;13860;52.370;6.764;2023-03-05T14:55:34;9.20;71.40
26099;DHT22;13860;52.370;6.764;2023-03-05T14:58:38;9.20;71.40
26099;DHT22;13860;52.370;6.764;2023-03-05T15:01:45;9.20;71.40
26099;DHT22;13860;52.370;6.764;2023-03-05T15:04:51;9.20;71.40
26099;DHT22;13860;52.370;6.764;2023-03-05T15:07:57;9.20;71.20
26099;DHT22;13860;52.370;6.764;2023-03-05T15:11:04;9.20;71.20
26099;DHT22;13860;52.370;6.764;2023-03-05T15:14:10;9.20;71.10
26099;DHT22;13860;52.370;6.764;2023-03-05T15:17:19;9.20;71.00
26099;DHT22;13860;52.370;6.764;2023-03-05T15:20:27;9.20;71.00
26099;DHT22;13860;52.370;6.764;2023-03-05T15:23:32;9.20;71.00
26099;DHT22;13860;52.370;6.764;2023-03-05T15:26:43;9.10;70.90
26099;DHT22;13860;52.370;6.764;2023-03-05T15:29:46;9.10;70.80
26099;DHT22;13860;52.370;6.764;2023-03-05T15:32:54;9.00;70.70
26099;DHT22;13860;52.370;6.764;2023-03-05T15:35:58;9.00;70.60
26099;DHT22;13860;52.370;6.764;2023-03-05T15:39:04;8.90;70.60
26099;DHT22;13860;52.370;6.764;2023-03-05T15:42:10;8.90;70.60
26099;DHT22;13860;52.370;6.764;2023-03-05T15:45:16;8.90;70.60
26099;DHT22;13860;52.370;6.764;2023-03-05T15:48:20;8.80;70.60
26099;DHT22;13860;52.370;6.764;2023-03-05T15:51:26;8.80;70.50
26099;DHT22;13860;52.370;6.764;2023-03-05T15:54:30;8.70;71.20
26099;DHT22;13860;52.370;6.764;2023-03-05T15:57:47;8.70;70.50
26099;DHT22;13860;52.370;6.764;2023-03-05T16:00:51;8.60;70.40
26099;DHT22;13860;52.370;6.764;2023-03-05T16:03:57;8.60;70.50
26099;DHT22;13860;52.370;6.764;2023-03-05T16:07:02;8.50;70.50
26099;DHT22;13860;52.370;6.764;2023-03-05T16:10:10;8.50;70.50
26099;DHT22;13860;52.370;6.764;2023-03-05T16:13:17;8.50;70.50
26099;DHT22;13860;52.370;6.764;2023-03-05T16:16:25;8.40;70.50
26099;DHT22;13860;52.370;6.764;2023-03-05T16:19:33;8.40;70.60
26099;DHT22;13860;52.370;6.764;2023-03-05T16:22:40;8.40;70.60
26099;DHT22;13860;52.370;6.764;2023-03-05T16:25:44;8.30;70.50
26099;DHT22;13860;52.370;6.764;2023-03-05T16:28:52;8.30;70.50
26099;DHT22;13860;52.370;6.764;2023-03-05T16:31:56;8.30;70.50
26099;DHT22;13860;52.370;6.764;2023-03-05T16:35:02;8.20;70.60
26099;DHT22;13860;52.370;6.764;2023-03-05T16:38:06;8.20;70.50
26099;DHT22;13860;52.370;6.764;2023-03-05T16:41:13;8.20;70.60
26099;DHT22;13860;52.370;6.764;2023-03-05T16:44:20;8.10;70.60
26099;DHT22;13860;52.370;6.764;2023-03-05T16:47:26;8.10;70.50
26099;DHT22;13860;52.370;6.764;2023-03-05T16:50:31;8.10;70.60
26099;DHT22;13860;52.370;6.764;2023-03-05T16:53:37;8.10;70.60
26099;DHT22;13860;52.370;6.764;2023-03-05T16:56:42;8.00;70.60
26099;DHT22;13860;52.370;6.764;2023-03-05T16:59:55;8.00;70.60
26099;DHT22;13860;52.370;6.764;2023-03-05T17:03:01;8.00;70.60
26099;DHT22;13860;52.370;6.764;2023-03-05T17:06:08;7.90;70.60
26099;DHT22;13860;52.370;6.764;2023-03-05T17:09:13;7.90;70.60
26099;DHT22;13860;52.370;6.764;2023-03-05T17:12:22;7.90;70.60
26099;DHT22;13860;52.370;6.764;2023-03-05T17:15:28;7.90;70.70
26099;DHT22;13860;52.370;6.764;2023-03-05T17:18:36;7.80;70.60
26099;DHT22;13860;52.370;6.764;2023-03-05T17:21:40;7.80;70.60
26099;DHT22;13860;52.370;6.764;2023-03-05T17:24:46;7.80;70.70
26099;DHT22;13860;52.370;6.764;2023-03-05T17:27:50;7.70;70.60
26099;DHT22;13860;52.370;6.764;2023-03-05T17:30:58;7.70;70.60
26099;DHT22;13860;52.370;6.764;2023-03-05T17:34:03;7.70;70.60
26099;DHT22;13860;52.370;6.764;2023-03-05T17:37:12;7.70;70.70
26099;DHT22;13860;52.370;6.764;2023-03-05T17:40:17;7.60;70.60
26099;DHT22;13860;52.370;6.764;2023-03-05T17:43:23;7.60;70.60
26099;DHT22;13860;52.370;6.764;2023-03-05T17:46:29;7.60;70.60
26099;DHT22;13860;52.370;6.764;2023-03-05T17:49:35;7.60;70.70
26099;DHT22;13860;52.370;6.764;2023-03-05T17:52:39;7.50;70.60
26099;DHT22;13860;52.370;6.764;2023-03-05T17:55:45;7.50;70.60
26099;DHT22;13860;52.370;6.764;2023-03-05T17:58:48;7.50;70.70
26099;DHT22;13860;52.370;6.764;2023-03-05T18:01:56;7.40;70.70
26099;DHT22;13860;52.370;6.764;2023-03-05T18:05:02;7.40;70.70
26099;DHT22;13860;52.370;6.764;2023-03-05T18:08:08;7.40;70.70
26099;DHT22;13860;52.370;6.764;2023-03-05T18:11:12;7.30;70.70
26099;DHT22;13860;52.370;6.764;2023-03-05T18:14:18;7.30;70.80
26099;DHT22;13860;52.370;6.764;2023-03-05T18:17:24;7.30;70.80
26099;DHT22;13860;52.370;6.764;2023-03-05T18:20:32;7.30;70.80
26099;DHT22;13860;52.370;6.764;2023-03-05T18:23:36;7.20;70.70
26099;DHT22;13860;52.370;6.764;2023-03-05T18:26:42;7.20;70.80
26099;DHT22;13860;52.370;6.764;2023-03-05T18:29:46;7.20;70.80
26099;DHT22;13860;52.370;6.764;2023-03-05T18:32:55;7.20;70.90
26099;DHT22;13860;52.370;6.764;2023-03-05T18:35:59;7.10;70.80
26099;DHT22;13860;52.370;6.764;2023-03-05T18:39:05;7.10;70.80
26099;DHT22;13860;52.370;6.764;2023-03-05T18:42:11;7.10;70.90
26099;DHT22;13860;52.370;6.764;2023-03-05T18:45:18;7.10;70.90
26099;DHT22;13860;52.370;6.764;2023-03-05T18:48:24;7.10;70.90
26099;DHT22;13860;52.370;6.764;2023-03-05T18:51:30;7.00;70.80
26099;DHT22;13860;52.370;6.764;2023-03-05T18:54:34;7.00;70.80
26099;DHT22;13860;52.370;6.764;2023-03-05T18:57:43;7.00;70.90
26099;DHT22;13860;52.370;6.764;2023-03-05T19:00:47;7.00;70.90
26099;DHT22;13860;52.370;6.764;2023-03-05T19:03:56;6.90;70.90
26099;DHT22;13860;52.370;6.764;2023-03-05T19:07:00;7.00;70.90
26099;DHT22;13860;52.370;6.764;2023-03-05T19:10:08;6.90;70.90
26099;DHT22;13860;52.370;6.764;2023-03-05T19:13:13;6.90;70.90
26099;DHT22;13860;52.370;6.764;2023-03-05T19:16:31;6.90;70.90
26099;DHT22;13860;52.370;6.764;2023-03-05T19:19:43;6.90;70.90
26099;DHT22;13860;52.370;6.764;2023-03-05T19:22:53;6.90;70.90
26099;DHT22;13860;52.370;6.764;2023-03-05T19:25:59;6.80;70.90
26099;DHT22;13860;52.370;6.764;2023-03-05T19:29:05;6.80;70.90
26099;DHT22;13860;52.370;6.764;2023-03-05T19:32:11;6.80;70.90
26099;DHT22;13860;52.370;6.764;2023-03-05T19:35:20;6.80;70.90
26099;DHT22;13860;52.370;6.764;2023-03-05T19:38:24;6.80;71.00
26099;DHT22;13860;52.370;6.764;2023-03-05T19:41:31;6.70;71.00
26099;DHT22;13860;52.370;6.764;2023-03-05T19:44:35;6.80;71.10
26099;DHT22;13860;52.370;6.764;2023-03-05T19:47:41;6.70;71.00
26099;DHT22;13860;52.370;6.764;2023-03-05T19:50:47;6.70;71.10
26099;DHT22;13860;52.370;6.764;2023-03-05T19:53:52;6.70;71.10
26099;DHT22;13860;52.370;6.764;2023-03-05T19:56:57;6.70;71.10
26099;DHT22;13860;52.370;6.764;2023-03-05T20:00:04;6.60;71.10
26099;DHT22;13860;52.370;6.764;2023-03-05T20:03:08;6.60;71.10
26099;DHT22;13860;52.370;6.764;2023-03-05T20:06:16;6.60;71.20
26099;DHT22;13860;52.370;6.764;2023-03-05T20:09:22;6.60;71.20